createdAt,value
2023-02-27T00:01:21.330Z,3.70
2023-02-27T00:03:49.034Z,4.90
2023-02-27T00:06:17.348Z,4.80
2023-02-27T00:08:44.323Z,5.30
2023-02-27T00:11:11.495Z,3.90
2023-02-27T00:13:38.609Z,4.80
2023-02-27T00:16:06.662Z,6.20
2023-02-27T00:18:33.919Z,4.60
2023-02-27T00:21:00.946Z,4.80
2023-02-27T00:23:28.138Z,5.60
2023-02-27T00:25:55.213Z,5.40
2023-02-27T00:28:23.062Z,6.20
2023-02-27T00:30:50.144Z,3.00
2023-02-27T00:33:17.909Z,2.90
2023-02-27T00:35:44.943Z,4.90
2023-02-27T00:38:12.054Z,5.70
2023-02-27T00:40:39.348Z,6.60
2023-02-27T00:43:06.369Z,6.30
2023-02-27T00:45:33.503Z,10.80
2023-02-27T00:48:01.246Z,5.50
2023-02-27T00:50:28.280Z,10.50
2023-02-27T00:52:55.400Z,12.20
2023-02-27T00:55:22.480Z,8.50
2023-02-27T00:57:49.614Z,17.30
2023-02-27T01:00:17.011Z,21.40
2023-02-27T01:02:44.118Z,38.30
2023-02-27T01:05:11.706Z,13.50
2023-02-27T01:07:38.875Z,25.40
2023-02-27T01:10:08.239Z,11.60
2023-02-27T01:12:40.670Z,8.50
2023-02-27T01:15:09.459Z,16.40
2023-02-27T01:17:36.647Z,11.80
2023-02-27T01:20:06.360Z,10.50
2023-02-27T01:22:33.752Z,10.40
2023-02-27T01:25:01.027Z,6.40
2023-02-27T01:27:28.089Z,7.70
2023-02-27T01:29:55.170Z,8.40
2023-02-27T01:32:23.862Z,9.30
2023-02-27T01:34:50.962Z,8.70
2023-02-27T01:37:18.793Z,5.50
2023-02-27T01:39:45.853Z,4.70
2023-02-27T01:42:25.490Z,4.00
2023-02-27T01:45:09.640Z,6.80
2023-02-27T01:47:42.626Z,7.20
2023-02-27T01:52:40.497Z,3.50
2023-02-27T01:55:12.088Z,4.70
2023-02-27T01:57:42.301Z,3.70
2023-02-27T02:00:10.104Z,5.60
2023-02-27T02:02:44.276Z,4.10
2023-02-27T02:05:15.164Z,7.60
2023-02-27T02:07:45.201Z,6.10
2023-02-27T02:10:15.936Z,4.00
2023-02-27T02:12:46.526Z,4.10
2023-02-27T02:15:14.517Z,3.40
2023-02-27T02:18:11.501Z,5.40
2023-02-27T02:20:48.087Z,6.00
2023-02-27T02:23:36.802Z,5.20
2023-02-27T02:26:33.591Z,6.00
2023-02-27T02:29:10.836Z,5.10
2023-02-27T02:32:13.377Z,8.70
2023-02-27T02:35:03.229Z,6.40
2023-02-27T02:37:47.345Z,6.90
2023-02-27T02:40:37.812Z,7.50
2023-02-27T02:43:12.009Z,5.90
2023-02-27T02:46:17.446Z,6.20
2023-02-27T02:49:02.758Z,3.30
2023-02-27T02:51:39.004Z,3.30
2023-02-27T02:54:52.973Z,1.60
2023-02-27T02:57:30.064Z,2.50
2023-02-27T03:00:10.232Z,2.40
2023-02-27T03:03:00.681Z,1.80
2023-02-27T03:05:39.639Z,2.30
2023-02-27T03:08:22.036Z,3.10
2023-02-27T03:11:03.316Z,3.30
2023-02-27T03:13:44.544Z,2.30
2023-02-27T03:16:37.014Z,3.10
2023-02-27T03:19:18.813Z,2.20
2023-02-27T03:21:49.236Z,2.60
2023-02-27T03:24:28.256Z,1.50
2023-02-27T03:27:02.381Z,1.30
2023-02-27T03:29:42.578Z,3.30
2023-02-27T03:32:22.559Z,3.10
2023-02-27T03:34:51.230Z,3.80
2023-02-27T03:37:58.615Z,4.20
2023-02-27T03:40:43.997Z,4.20
2023-02-27T03:43:45.389Z,4.50
2023-02-27T03:46:16.984Z,3.80
2023-02-27T03:48:46.393Z,4.30
2023-02-27T03:51:28.103Z,4.70
2023-02-27T03:54:10.858Z,6.90
2023-02-27T03:56:47.305Z,6.60
2023-02-27T03:59:15.521Z,6.60
2023-02-27T04:01:46.217Z,6.00
2023-02-27T04:04:17.014Z,4.00
2023-02-27T04:07:24.080Z,2.60
2023-02-27T04:09:57.307Z,2.00
2023-02-27T04:13:06.085Z,5.10
2023-02-27T04:15:55.197Z,3.50
2023-02-27T04:18:55.751Z,4.60
2023-02-27T04:21:29.872Z,6.00
2023-02-27T04:24:29.539Z,6.10
2023-02-27T04:27:30.270Z,7.30
2023-02-27T04:30:13.445Z,6.00
2023-02-27T04:32:52.828Z,3.60
2023-02-27T04:35:48.332Z,4.30
2023-02-27T04:38:26.258Z,2.70
2023-02-27T04:41:12.635Z,5.40
2023-02-27T04:43:43.744Z,3.90
2023-02-27T04:46:15.096Z,0.70
2023-02-27T04:48:49.158Z,2.00
2023-02-27T04:51:22.943Z,2.20
2023-02-27T04:54:15.286Z,1.90
2023-02-27T04:56:52.269Z,2.80
2023-02-27T04:59:30.620Z,2.80
2023-02-27T05:02:04.207Z,3.60
2023-02-27T05:04:36.777Z,3.70
2023-02-27T05:07:09.005Z,1.80
2023-02-27T05:09:51.978Z,2.10
2023-02-27T05:12:18.944Z,2.70
2023-02-27T05:15:09.615Z,1.30
2023-02-27T05:17:45.675Z,1.50
2023-02-27T05:20:15.228Z,1.40
2023-02-27T05:22:48.720Z,6.60
2023-02-27T05:25:33.122Z,1.50
2023-02-27T05:28:24.008Z,1.60
2023-02-27T05:31:18.137Z,2.20
2023-02-27T05:34:20.077Z,1.80
2023-02-27T05:36:59.384Z,2.10
2023-02-27T05:39:30.014Z,2.00
2023-02-27T05:42:28.057Z,1.90
2023-02-27T05:45:23.290Z,4.00
2023-02-27T05:49:16.708Z,2.20
2023-02-27T05:52:39.902Z,3.60
2023-02-27T05:55:42.628Z,2.50
2023-02-27T05:59:03.352Z,5.70
2023-02-27T06:13:16.944Z,5.00
2023-02-27T06:15:52.199Z,4.30
2023-02-27T06:19:21.250Z,2.50
2023-02-27T06:22:07.949Z,2.30
2023-02-27T06:25:21.196Z,2.40
2023-02-27T06:29:43.843Z,2.30
2023-02-27T06:33:20.287Z,1.90
2023-02-27T06:37:36.449Z,1.50
2023-02-27T06:41:44.312Z,2.90
2023-02-27T06:45:59.849Z,4.00
2023-02-27T06:50:34.831Z,5.10
2023-02-27T06:55:31.293Z,5.60
2023-02-27T07:00:34.333Z,11.10
2023-02-27T07:09:28.349Z,5.10
2023-02-27T07:13:53.229Z,7.90
2023-02-27T07:17:55.376Z,4.90
2023-02-27T07:21:33.705Z,6.20
2023-02-27T07:24:50.285Z,10.90
2023-02-27T07:27:42.205Z,9.80
2023-02-27T07:30:36.246Z,5.10
2023-02-27T07:36:16.428Z,7.60
2023-02-27T07:39:43.098Z,5.90
2023-02-27T07:42:19.171Z,4.90
2023-02-27T07:44:52.157Z,4.90
2023-02-27T07:47:38.909Z,3.30
2023-02-27T07:50:29.486Z,5.30
2023-02-27T07:53:39.700Z,9.10
2023-02-27T07:57:07.528Z,9.00
2023-02-27T08:00:56.291Z,12.40
2023-02-27T08:04:04.883Z,8.80
2023-02-27T08:07:19.124Z,5.90
2023-02-27T08:10:38.309Z,9.20
2023-02-27T08:13:59.122Z,7.50
2023-02-27T08:17:23.586Z,9.00
2023-02-27T08:20:38.429Z,7.90
2023-02-27T08:24:29.800Z,7.20
2023-02-27T08:28:22.322Z,3.00
2023-02-27T08:34:11.346Z,2.70
2023-02-27T08:37:06.273Z,3.10
2023-02-27T08:40:57.205Z,3.10
2023-02-27T08:43:45.310Z,3.70
2023-02-27T08:46:39.908Z,2.40
2023-02-27T08:49:25.914Z,3.50
2023-02-27T08:52:02.459Z,5.20
2023-02-27T08:54:34.628Z,2.00
2023-02-27T08:57:07.249Z,3.20
2023-02-27T08:59:39.396Z,3.00
2023-02-27T09:02:11.667Z,4.00
2023-02-27T09:04:46.085Z,3.40
2023-02-27T09:07:22.132Z,3.60
2023-02-27T09:09:52.101Z,3.80
2023-02-27T09:12:21.542Z,3.50
2023-02-27T09:14:50.317Z,2.80
2023-02-27T09:17:20.709Z,2.10
2023-02-27T09:19:49.578Z,2.20
2023-02-27T09:22:21.244Z,2.40
2023-02-27T09:24:49.722Z,0.70
2023-02-27T09:27:18.363Z,2.50
2023-02-27T09:29:49.025Z,2.90
2023-02-27T09:32:17.655Z,3.90
2023-02-27T09:34:46.809Z,5.50
2023-02-27T09:37:16.255Z,5.10
2023-02-27T09:39:46.401Z,4.50
2023-02-27T09:42:25.132Z,4.80
2023-02-27T09:44:59.225Z,5.10
2023-02-27T09:47:50.702Z,4.10
2023-02-27T09:50:41.313Z,5.20
2023-02-27T09:53:19.709Z,10.30
2023-02-27T09:55:55.052Z,2.40
2023-02-27T09:59:06.262Z,5.60
2023-02-27T10:01:44.148Z,2.10
2023-02-27T10:04:43.568Z,5.20
2023-02-27T10:07:27.362Z,2.50
2023-02-27T10:10:23.420Z,4.60
2023-02-27T10:13:28.574Z,4.10
2023-02-27T10:15:58.354Z,4.60
2023-02-27T10:18:55.994Z,4.40
2023-02-27T10:21:37.596Z,3.50
2023-02-27T10:24:27.777Z,4.40
2023-02-27T10:26:59.240Z,5.50
2023-02-27T10:29:32.545Z,6.70
2023-02-27T10:32:05.921Z,6.40
2023-02-27T10:34:36.482Z,5.90
2023-02-27T10:37:07.091Z,2.40
2023-02-27T10:39:56.038Z,3.50
2023-02-27T10:42:33.341Z,4.10
2023-02-27T10:45:03.649Z,4.10
2023-02-27T10:47:32.544Z,3.90
2023-02-27T10:50:01.005Z,6.00
2023-02-27T10:52:29.442Z,5.50
2023-02-27T10:55:27.113Z,3.30
2023-02-27T10:58:03.205Z,3.80
2023-02-27T11:00:45.291Z,5.60
2023-02-27T11:03:22.360Z,4.30
2023-02-27T11:06:02.089Z,4.10
2023-02-27T11:08:34.105Z,2.80
2023-02-27T11:11:04.348Z,2.10
2023-02-27T11:13:35.823Z,2.30
2023-02-27T11:16:10.351Z,5.10
2023-02-27T11:18:47.227Z,3.00
2023-02-27T11:21:34.819Z,2.60
2023-02-27T11:24:19.475Z,4.50
2023-02-27T11:27:04.566Z,2.10
2023-02-27T11:29:34.825Z,5.30
2023-02-27T11:32:14.131Z,5.10
2023-02-27T11:34:51.994Z,4.00
2023-02-27T11:37:31.547Z,5.20
2023-02-27T11:40:21.448Z,5.80
2023-02-27T11:42:57.986Z,7.20
2023-02-27T11:46:04.970Z,5.70
2023-02-27T11:48:48.117Z,4.60
2023-02-27T11:51:55.733Z,3.90
2023-02-27T11:54:34.870Z,3.70
2023-02-27T11:57:20.896Z,5.60
2023-02-27T11:59:56.820Z,5.80
2023-02-27T12:02:59.862Z,4.10
2023-02-27T12:05:33.392Z,3.60
2023-02-27T12:08:07.755Z,5.30
2023-02-27T12:11:14.308Z,3.60
2023-02-27T12:14:06.557Z,5.00
2023-02-27T12:16:42.709Z,5.60
2023-02-27T12:19:18.742Z,5.90
2023-02-27T12:21:56.948Z,5.00
2023-02-27T12:25:11.256Z,4.60
2023-02-27T12:27:54.302Z,6.00
2023-02-27T12:30:27.300Z,3.00
2023-02-27T12:33:11.946Z,6.70
2023-02-27T12:35:44.687Z,5.00
2023-02-27T12:38:15.470Z,4.70
2023-02-27T12:40:51.986Z,5.70
2023-02-27T12:43:41.557Z,5.20
2023-02-27T12:46:38.743Z,7.90
2023-02-27T12:49:29.675Z,8.00
2023-02-27T12:52:33.121Z,4.30
2023-02-27T12:55:18.924Z,10.30
2023-02-27T12:58:13.002Z,8.40
2023-02-27T13:01:01.147Z,11.90
2023-02-27T13:03:41.848Z,11.30
2023-02-27T13:06:30.184Z,10.40
2023-02-27T13:09:35.585Z,6.40
2023-02-27T13:12:31.442Z,7.90
2023-02-27T13:15:05.592Z,6.20
2023-02-27T13:17:44.187Z,3.50
2023-02-27T13:20:30.796Z,9.10
2023-02-27T13:23:25.382Z,6.50
2023-02-27T13:25:56.385Z,7.30
2023-02-27T13:28:28.515Z,7.90
2023-02-27T13:31:15.479Z,4.80
2023-02-27T13:33:54.682Z,11.60
2023-02-27T13:36:33.623Z,11.10
2023-02-27T13:39:03.077Z,8.10
2023-02-27T13:41:42.078Z,7.90
2023-02-27T13:44:36.064Z,7.30
2023-02-27T13:47:29.547Z,9.60
2023-02-27T13:52:38.911Z,9.00
2023-02-27T13:55:26.349Z,10.60
2023-02-27T13:57:57.555Z,9.90
2023-02-27T14:00:35.145Z,6.40
2023-02-27T14:03:20.770Z,7.30
2023-02-27T14:05:53.417Z,5.70
2023-02-27T14:08:34.411Z,8.50
2023-02-27T14:11:25.209Z,6.60
2023-02-27T14:13:58.454Z,8.10
2023-02-27T14:16:44.358Z,5.40
2023-02-27T14:19:15.901Z,6.80
2023-02-27T14:21:53.452Z,5.80
2023-02-27T14:25:01.104Z,8.30
2023-02-27T14:27:44.711Z,4.10
2023-02-27T14:30:29.597Z,6.00
2023-02-27T14:33:08.114Z,9.20
2023-02-27T14:35:37.053Z,4.70
2023-02-27T14:38:11.586Z,3.30
2023-02-27T14:41:20.879Z,6.60
2023-02-27T14:43:57.771Z,7.20
2023-02-27T14:46:44.534Z,4.20
2023-02-27T14:49:30.382Z,7.70
2023-02-27T14:52:22.439Z,6.50
2023-02-27T14:54:52.118Z,10.30
2023-02-27T14:57:27.044Z,7.30
2023-02-27T14:59:55.705Z,4.60
2023-02-27T15:02:36.178Z,4.80
2023-02-27T15:05:16.509Z,6.10
2023-02-27T15:07:49.124Z,10.10
2023-02-27T15:10:25.263Z,3.90
2023-02-27T15:12:53.748Z,5.30
2023-02-27T15:15:22.673Z,4.90
2023-02-27T15:17:53.980Z,8.80
2023-02-27T15:20:34.105Z,5.90
2023-02-27T15:23:29.069Z,7.00
2023-02-27T15:25:59.970Z,8.30
2023-02-27T15:28:37.736Z,5.10
2023-02-27T15:31:10.215Z,4.50
2023-02-27T15:33:39.437Z,5.60
2023-02-27T15:36:08.144Z,6.20
2023-02-27T15:38:38.261Z,4.30
2023-02-27T15:41:18.655Z,7.30
2023-02-27T15:43:47.176Z,5.50
2023-02-27T15:46:16.335Z,7.70
2023-02-27T15:48:49.908Z,4.60
2023-02-27T15:51:18.316Z,3.50
2023-02-27T15:53:54.981Z,6.10
2023-02-27T15:56:33.199Z,4.30
2023-02-27T15:59:02.202Z,5.30
2023-02-27T16:01:32.768Z,8.90
2023-02-27T16:04:06.645Z,7.70
2023-02-27T16:06:40.311Z,10.70
2023-02-27T16:09:26.232Z,4.90
2023-02-27T16:12:21.147Z,5.30
2023-02-27T16:14:56.063Z,4.60
2023-02-27T16:17:31.674Z,4.70
2023-02-27T16:20:04.457Z,6.50
2023-02-27T16:25:11.313Z,6.40
2023-02-27T16:27:40.105Z,9.60
2023-02-27T16:30:13.113Z,9.80
2023-02-27T16:32:46.831Z,8.00
2023-02-27T16:35:23.768Z,12.00
2023-02-27T16:37:53.633Z,11.20
2023-02-27T16:40:25.025Z,11.70
2023-02-27T16:42:53.989Z,4.10
2023-02-27T16:45:24.955Z,7.70
2023-02-27T16:47:56.420Z,9.20
2023-02-27T16:50:35.345Z,10.80
2023-02-27T16:53:04.064Z,7.80
2023-02-27T16:55:33.736Z,18.70
2023-02-27T16:58:02.395Z,14.80
2023-02-27T17:00:30.896Z,9.00
2023-02-27T17:02:59.344Z,10.40
2023-02-27T17:05:27.812Z,7.40
2023-02-27T17:07:58.682Z,5.70
2023-02-27T17:10:34.071Z,16.90
2023-02-27T17:13:02.419Z,7.90
2023-02-27T17:15:30.804Z,9.40
2023-02-27T17:17:59.199Z,13.40
2023-02-27T17:20:30.363Z,9.50
2023-02-27T17:22:59.025Z,10.10
2023-02-27T17:25:28.309Z,6.70
2023-02-27T17:27:56.695Z,10.10
2023-02-27T17:30:25.259Z,5.80
2023-02-27T17:32:53.798Z,11.40
2023-02-27T17:35:22.276Z,9.80
2023-02-27T17:37:53.088Z,12.60
2023-02-27T17:40:23.813Z,15.50
2023-02-27T17:42:52.158Z,11.40
2023-02-27T17:45:21.534Z,10.10
2023-02-27T17:47:50.697Z,8.30
2023-02-27T17:50:19.245Z,11.40
2023-02-27T17:52:47.603Z,13.70
2023-02-27T17:55:17.146Z,10.80
2023-02-27T17:57:45.556Z,5.20
2023-02-27T18:00:15.475Z,7.00
2023-02-27T18:02:45.604Z,10.20
2023-02-27T18:05:15.388Z,9.80
2023-02-27T18:07:43.754Z,10.50
2023-02-27T18:10:14.208Z,10.40
2023-02-27T18:12:43.343Z,12.40
2023-02-27T18:15:11.835Z,4.40
2023-02-27T18:17:40.393Z,11.10
2023-02-27T18:20:10.283Z,4.70
2023-02-27T18:22:38.737Z,4.60
2023-02-27T18:25:07.566Z,16.10
2023-02-27T18:27:36.042Z,11.80
2023-02-27T18:30:05.128Z,16.20
2023-02-27T18:32:33.592Z,8.70
2023-02-27T18:35:02.152Z,3.50
2023-02-27T18:37:30.537Z,13.20
2023-02-27T18:39:58.920Z,2.80
2023-02-27T18:42:27.478Z,13.20
2023-02-27T18:44:55.891Z,8.90
2023-02-27T18:47:24.291Z,8.80
2023-02-27T18:49:52.694Z,14.50
2023-02-27T18:52:21.138Z,9.80
2023-02-27T18:54:49.532Z,14.20
2023-02-27T18:57:18.448Z,13.50
2023-02-27T18:59:47.663Z,13.40
2023-02-27T19:02:19.864Z,12.10
2023-02-27T19:04:49.159Z,10.30
2023-02-27T19:07:18.990Z,7.40
2023-02-27T19:09:47.518Z,14.00
2023-02-27T19:12:15.936Z,25.50
2023-02-27T19:14:44.423Z,12.80
2023-02-27T19:17:13.969Z,10.50
2023-02-27T19:19:42.521Z,11.10
2023-02-27T19:22:11.025Z,9.20
2023-02-27T19:24:39.428Z,14.60
2023-02-27T19:27:07.842Z,12.60
2023-02-27T19:29:36.334Z,11.00
2023-02-27T19:32:07.734Z,12.10
2023-02-27T19:34:38.320Z,6.10
2023-02-27T19:37:07.925Z,14.50
2023-02-27T19:39:36.311Z,8.30
2023-02-27T19:42:04.850Z,12.50
2023-02-27T19:44:33.246Z,15.40
2023-02-27T19:47:01.821Z,8.20
2023-02-27T19:49:30.316Z,13.20
2023-02-27T19:51:58.699Z,10.50
2023-02-27T19:54:27.121Z,6.90
2023-02-27T19:56:55.600Z,7.80
2023-02-27T19:59:24.901Z,8.00
2023-02-27T20:01:53.608Z,4.90
2023-02-27T20:04:22.291Z,9.40
2023-02-27T20:06:53.821Z,7.30
2023-02-27T20:09:23.980Z,10.70
2023-02-27T20:11:56.910Z,6.60
2023-02-27T20:14:25.385Z,7.30
2023-02-27T20:16:54.521Z,4.30
2023-02-27T20:19:24.413Z,7.90
2023-02-27T20:21:54.367Z,7.30
2023-02-27T20:24:24.715Z,10.00
2023-02-27T20:26:54.426Z,10.00
2023-02-27T20:29:24.727Z,5.60
2023-02-27T20:31:54.194Z,4.70
2023-02-27T20:34:26.630Z,13.40
2023-02-27T20:36:57.886Z,7.40
2023-02-27T20:39:28.122Z,11.70
2023-02-27T20:41:56.538Z,9.20
2023-02-27T20:44:24.934Z,9.00
2023-02-27T20:46:53.312Z,11.20
2023-02-27T20:49:23.590Z,10.20
2023-02-27T20:51:52.964Z,8.80
2023-02-27T20:54:21.553Z,10.30
2023-02-27T20:56:54.681Z,7.30
2023-02-27T20:59:25.535Z,12.80
2023-02-27T21:01:55.117Z,12.90
2023-02-27T21:04:43.154Z,8.10
2023-02-27T21:07:14.606Z,6.00
2023-02-27T21:09:43.791Z,6.00
2023-02-27T21:12:12.677Z,12.90
2023-02-27T21:14:44.330Z,7.30
2023-02-27T21:17:14.237Z,6.60
2023-02-27T21:19:42.737Z,10.20
2023-02-27T21:22:11.856Z,6.20
2023-02-27T21:24:40.297Z,12.10
2023-02-27T21:27:08.779Z,8.50
2023-02-27T21:29:37.276Z,10.90
2023-02-27T21:32:07.747Z,11.30
2023-02-27T21:34:36.385Z,14.70
2023-02-27T21:37:07.457Z,10.10
2023-02-27T21:39:35.949Z,12.30
2023-02-27T21:42:05.049Z,13.80
2023-02-27T21:44:33.417Z,77.30
2023-02-27T21:47:10.311Z,37.40
2023-02-27T21:49:39.542Z,63.30
2023-02-27T21:52:08.204Z,28.90
2023-02-27T21:54:36.677Z,14.50
2023-02-27T21:57:05.581Z,17.30
2023-02-27T21:59:34.448Z,5.20
2023-02-27T22:02:02.875Z,14.20
2023-02-27T22:04:31.399Z,15.60
2023-02-27T22:06:59.835Z,12.50
2023-02-27T22:09:28.220Z,15.70
2023-02-27T22:11:56.668Z,37.90
2023-02-27T22:14:26.397Z,24.00
2023-02-27T22:16:54.894Z,23.40
2023-02-27T22:19:23.558Z,27.90
2023-02-27T22:21:51.959Z,20.80
2023-02-27T22:24:20.766Z,15.70
2023-02-27T22:26:50.613Z,12.30
2023-02-27T22:29:19.080Z,10.40
2023-02-27T22:31:47.585Z,16.00
2023-02-27T22:34:18.796Z,12.40
2023-02-27T22:36:48.922Z,12.00
2023-02-27T22:39:17.317Z,15.50
2023-02-27T22:41:46.395Z,16.60
2023-02-27T22:44:16.683Z,15.20
2023-02-27T22:46:48.150Z,13.80
2023-02-27T22:49:22.181Z,15.50
2023-02-27T22:51:52.286Z,15.90
2023-02-27T22:54:22.667Z,14.00
2023-02-27T22:56:53.071Z,16.80
2023-02-27T22:59:22.476Z,20.00
2023-02-27T23:01:52.430Z,21.80
2023-02-27T23:04:22.461Z,26.10
2023-02-27T23:06:52.776Z,20.30
2023-02-27T23:09:27.467Z,20.10
2023-02-27T23:11:56.489Z,16.50
2023-02-27T23:14:24.911Z,16.70
2023-02-27T23:16:54.816Z,19.10
2023-02-27T23:19:23.369Z,16.40
2023-02-27T23:21:51.840Z,21.30
2023-02-27T23:24:20.734Z,19.20
2023-02-27T23:26:51.618Z,15.80
2023-02-27T23:29:20.445Z,18.80
2023-02-27T23:31:49.016Z,20.50
2023-02-27T23:34:17.376Z,19.80
2023-02-27T23:36:45.640Z,19.40
2023-02-27T23:39:14.016Z,18.40
2023-02-27T23:41:42.701Z,22.90
2023-02-27T23:44:11.081Z,20.80
2023-02-27T23:46:39.837Z,21.60
2023-02-27T23:49:09.097Z,20.80
2023-02-27T23:51:37.545Z,21.30
2023-02-27T23:54:06.136Z,16.40
2023-02-27T23:56:34.516Z,20.20
2023-02-27T23:59:05.970Z,18.20
